createdAt,value
2022-12-23T00:00:02.653Z,10.70
2022-12-23T00:00:34.473Z,10.60
2022-12-23T00:01:08.666Z,10.70
2022-12-23T00:01:40.657Z,10.70
2022-12-23T00:02:12.593Z,10.60
2022-12-23T00:02:46.208Z,10.60
2022-12-23T00:03:18.240Z,10.60
2022-12-23T00:03:50.719Z,10.60
2022-12-23T00:04:23.629Z,10.60
2022-12-23T00:04:55.514Z,10.60
2022-12-23T00:05:31.366Z,10.70
2022-12-23T00:06:11.973Z,10.60
2022-12-23T00:06:43.750Z,10.70
2022-12-23T00:07:15.534Z,10.60
2022-12-23T00:07:48.314Z,10.70
2022-12-23T00:08:20.466Z,10.70
2022-12-23T00:08:57.934Z,10.70
2022-12-23T00:09:30.871Z,10.60
2022-12-23T00:10:03.175Z,10.60
2022-12-23T00:10:37.644Z,10.60
2022-12-23T00:11:14.314Z,10.60
2022-12-23T00:12:13.644Z,10.60
2022-12-23T00:13:03.776Z,10.50
2022-12-23T00:13:54.274Z,10.60
2022-12-23T00:14:59.185Z,10.50
2022-12-23T00:15:31.965Z,10.50
2022-12-23T00:16:05.663Z,10.50
2022-12-23T00:16:38.478Z,10.50
2022-12-23T00:17:22.234Z,10.60
2022-12-23T00:17:54.861Z,10.60
2022-12-23T00:18:26.985Z,10.60
2022-12-23T00:18:59.743Z,10.60
2022-12-23T00:19:31.601Z,10.60
2022-12-23T00:20:05.233Z,10.60
2022-12-23T00:20:38.017Z,10.60
2022-12-23T00:21:13.179Z,10.70
2022-12-23T00:21:44.971Z,10.70
2022-12-23T00:22:16.781Z,10.70
2022-12-23T00:23:07.891Z,10.70
2022-12-23T00:23:41.805Z,10.60
2022-12-23T00:24:14.569Z,10.60
2022-12-23T00:24:46.396Z,10.60
2022-12-23T00:25:18.498Z,10.60
2022-12-23T00:25:51.253Z,10.60
2022-12-23T00:26:25.182Z,10.60
2022-12-23T00:26:57.934Z,10.60
2022-12-23T00:27:32.945Z,10.60
2022-12-23T00:28:11.552Z,10.60
2022-12-23T00:28:44.693Z,10.50
2022-12-23T00:29:16.476Z,10.60
2022-12-23T00:29:48.252Z,10.50
2022-12-23T00:30:21.123Z,10.60
2022-12-23T00:30:54.431Z,10.50
2022-12-23T00:31:27.331Z,10.50
2022-12-23T00:31:59.277Z,10.40
2022-12-23T00:32:31.086Z,10.40
2022-12-23T00:33:02.976Z,10.40
2022-12-23T00:33:37.895Z,10.40
2022-12-23T00:34:11.949Z,10.40
2022-12-23T00:34:43.867Z,10.30
2022-12-23T00:35:16.708Z,10.30
2022-12-23T00:35:49.084Z,10.30
2022-12-23T00:36:24.177Z,10.30
2022-12-23T00:36:57.077Z,10.20
2022-12-23T00:37:30.405Z,10.20
2022-12-23T00:38:02.225Z,10.10
2022-12-23T00:38:52.504Z,10.10
2022-12-23T00:40:02.595Z,10.10
2022-12-23T00:40:56.658Z,10.10
2022-12-23T00:41:47.310Z,10.10
2022-12-23T00:42:37.399Z,10.10
2022-12-23T00:43:10.151Z,10.00
2022-12-23T00:43:41.958Z,10.10
2022-12-23T00:44:13.776Z,10.00
2022-12-23T00:44:46.602Z,10.00
2022-12-23T00:45:18.653Z,10.00
2022-12-23T00:45:50.452Z,10.00
2022-12-23T00:46:23.323Z,10.00
2022-12-23T00:46:55.227Z,10.00
2022-12-23T00:47:45.567Z,10.00
2022-12-23T00:48:35.880Z,10.00
2022-12-23T00:49:26.354Z,10.00
2022-12-23T00:49:58.171Z,10.10
2022-12-23T00:50:31.951Z,10.00
2022-12-23T00:51:04.131Z,10.00
2022-12-23T00:51:37.299Z,10.00
2022-12-23T00:52:13.278Z,10.00
2022-12-23T00:52:45.027Z,10.00
2022-12-23T00:53:16.817Z,9.90
2022-12-23T00:53:49.585Z,9.90
2022-12-23T00:54:21.421Z,9.90
2022-12-23T00:54:53.236Z,9.90
2022-12-23T00:55:26.485Z,9.90
2022-12-23T00:55:58.283Z,10.00
2022-12-23T00:56:30.355Z,10.00
2022-12-23T00:57:03.493Z,10.00
2022-12-23T00:57:35.279Z,10.00
2022-12-23T00:58:07.101Z,10.00
2022-12-23T00:58:39.811Z,10.00
2022-12-23T00:59:11.688Z,9.90
2022-12-23T00:59:43.473Z,10.00
2022-12-23T01:00:16.696Z,10.00
2022-12-23T01:01:07.380Z,10.00
2022-12-23T01:01:57.918Z,10.00
2022-12-23T01:02:48.389Z,9.90
2022-12-23T01:03:38.774Z,9.90
2022-12-23T01:04:30.908Z,10.00
2022-12-23T01:05:26.816Z,9.90
2022-12-23T01:06:00.300Z,9.90
2022-12-23T01:06:32.259Z,9.90
2022-12-23T01:07:07.410Z,9.90
2022-12-23T01:07:40.161Z,9.80
2022-12-23T01:08:12.564Z,9.90
2022-12-23T01:08:44.693Z,9.90
2022-12-23T01:09:17.756Z,9.90
2022-12-23T01:09:49.702Z,9.90
2022-12-23T01:10:21.517Z,9.80
2022-12-23T01:10:54.525Z,9.80
2022-12-23T01:11:26.335Z,9.80
2022-12-23T01:11:58.149Z,9.80
2022-12-23T01:12:30.895Z,9.80
2022-12-23T01:13:02.782Z,9.70
2022-12-23T01:13:35.003Z,9.70
2022-12-23T01:14:09.188Z,9.60
2022-12-23T01:14:41.231Z,9.60
2022-12-23T01:15:13.034Z,9.60
2022-12-23T01:15:46.130Z,9.60
2022-12-23T01:16:18.114Z,9.60
2022-12-23T01:16:50.214Z,9.70
2022-12-23T01:17:23.043Z,9.70
2022-12-23T01:17:54.835Z,9.60
2022-12-23T01:18:26.651Z,9.60
2022-12-23T01:19:00.073Z,9.60
2022-12-23T01:19:31.894Z,9.70
2022-12-23T01:20:04.366Z,9.60
2022-12-23T01:20:38.693Z,9.60
2022-12-23T01:21:10.573Z,9.60
2022-12-23T01:21:42.394Z,9.60
2022-12-23T01:22:16.530Z,9.60
2022-12-23T01:22:48.344Z,9.60
2022-12-23T01:23:20.155Z,9.60
2022-12-23T01:23:52.978Z,9.60
2022-12-23T01:24:27.835Z,9.70
2022-12-23T01:25:00.572Z,9.70
2022-12-23T01:25:32.834Z,9.80
2022-12-23T01:26:07.580Z,9.80
2022-12-23T01:26:40.357Z,9.80
2022-12-23T01:27:12.137Z,9.80
2022-12-23T01:27:44.008Z,9.90
2022-12-23T01:28:15.836Z,9.90
2022-12-23T01:28:48.621Z,9.90
2022-12-23T01:29:20.407Z,9.90
2022-12-23T01:29:52.193Z,9.80
2022-12-23T01:30:25.352Z,9.80
2022-12-23T01:30:57.913Z,9.80
2022-12-23T01:31:30.340Z,9.80
2022-12-23T01:32:03.223Z,9.70
2022-12-23T01:32:35.048Z,9.70
2022-12-23T01:33:06.891Z,9.70
2022-12-23T01:33:38.752Z,9.60
2022-12-23T01:34:11.615Z,9.60
2022-12-23T01:34:43.434Z,9.60
2022-12-23T01:35:15.424Z,9.60
2022-12-23T01:35:48.741Z,9.60
2022-12-23T01:36:20.813Z,9.60
2022-12-23T01:36:52.597Z,9.60
2022-12-23T01:37:26.733Z,9.60
2022-12-23T01:37:58.576Z,9.60
2022-12-23T01:38:30.428Z,9.60
2022-12-23T01:39:03.223Z,9.60
2022-12-23T01:39:35.071Z,9.60
2022-12-23T01:40:08.615Z,9.60
2022-12-23T01:40:43.738Z,9.60
2022-12-23T01:41:37.646Z,9.60
2022-12-23T01:42:30.946Z,9.60
2022-12-23T01:43:02.797Z,9.70
2022-12-23T01:43:47.712Z,9.70
2022-12-23T01:44:53.037Z,9.70
2022-12-23T01:45:29.024Z,9.70
2022-12-23T01:46:01.819Z,9.70
2022-12-23T01:46:33.684Z,9.70
2022-12-23T01:47:09.794Z,9.70
2022-12-23T01:47:46.793Z,9.80
2022-12-23T01:48:22.708Z,9.80
2022-12-23T01:48:55.541Z,9.70
2022-12-23T01:49:27.366Z,9.70
2022-12-23T01:50:04.991Z,9.70
2022-12-23T01:50:39.895Z,9.70
2022-12-23T01:51:16.207Z,9.70
2022-12-23T01:51:49.063Z,9.60
2022-12-23T01:52:21.581Z,9.60
2022-12-23T01:53:06.944Z,9.60
2022-12-23T01:53:44.542Z,9.60
2022-12-23T01:54:16.333Z,9.60
2022-12-23T01:54:48.321Z,9.50
2022-12-23T01:55:24.727Z,9.50
2022-12-23T01:56:01.497Z,9.50
2022-12-23T01:56:36.606Z,9.50
2022-12-23T01:57:09.461Z,9.60
2022-12-23T01:57:42.787Z,9.60
2022-12-23T01:58:18.061Z,9.50
2022-12-23T01:58:53.813Z,9.50
2022-12-23T01:59:41.026Z,9.50
2022-12-23T02:00:32.200Z,9.40
2022-12-23T02:01:24.112Z,9.40
2022-12-23T02:02:14.816Z,9.40
2022-12-23T02:03:06.649Z,9.30
2022-12-23T02:03:44.707Z,9.30
2022-12-23T02:04:21.512Z,9.30
2022-12-23T02:04:54.330Z,9.30
2022-12-23T02:05:26.674Z,9.30
2022-12-23T02:06:19.936Z,9.30
2022-12-23T02:07:10.468Z,9.30
2022-12-23T02:08:01.218Z,9.30
2022-12-23T02:08:53.013Z,9.30
2022-12-23T02:09:27.774Z,9.30
2022-12-23T02:09:59.656Z,9.30
2022-12-23T02:10:43.371Z,9.30
2022-12-23T02:11:41.017Z,9.30
2022-12-23T02:12:33.033Z,9.30
2022-12-23T02:13:12.760Z,9.30
2022-12-23T02:14:06.684Z,9.30
2022-12-23T02:15:15.010Z,9.30
2022-12-23T02:16:10.321Z,9.30
2022-12-23T02:16:50.140Z,9.30
2022-12-23T02:17:27.021Z,9.30
2022-12-23T02:18:22.073Z,9.30
2022-12-23T02:19:04.275Z,9.20
2022-12-23T02:20:04.223Z,9.20
2022-12-23T02:21:08.656Z,9.20
2022-12-23T02:22:10.389Z,9.20
2022-12-23T02:23:00.769Z,9.20
2022-12-23T02:24:13.852Z,9.20
2022-12-23T02:25:26.586Z,9.20
2022-12-23T02:26:16.065Z,9.20
2022-12-23T02:27:05.291Z,9.20
2022-12-23T02:27:56.363Z,9.20
2022-12-23T02:28:46.107Z,9.20
2022-12-23T02:29:48.009Z,9.20
2022-12-23T02:30:41.547Z,9.20
2022-12-23T02:31:19.654Z,9.20
2022-12-23T02:31:57.977Z,9.20
2022-12-23T02:32:39.950Z,9.20
2022-12-23T02:33:30.554Z,9.20
2022-12-23T02:34:13.087Z,9.20
2022-12-23T02:34:52.402Z,9.20
2022-12-23T02:35:30.811Z,9.20
2022-12-23T02:36:12.882Z,9.20
2022-12-23T02:36:53.724Z,9.20
2022-12-23T02:37:35.829Z,9.20
2022-12-23T02:38:14.317Z,9.20
2022-12-23T02:38:53.105Z,9.20
2022-12-23T02:39:36.412Z,9.20
2022-12-23T02:40:13.101Z,9.20
2022-12-23T02:40:56.992Z,9.20
2022-12-23T02:41:37.817Z,9.30
2022-12-23T02:42:15.327Z,9.30
2022-12-23T02:42:53.050Z,9.30
2022-12-23T02:43:32.520Z,9.30
2022-12-23T02:44:11.992Z,9.30
2022-12-23T02:44:48.803Z,9.30
2022-12-23T02:45:31.363Z,9.30
2022-12-23T02:46:09.871Z,9.30
2022-12-23T02:46:47.619Z,9.30
2022-12-23T02:47:22.819Z,9.30
2022-12-23T02:47:57.968Z,9.30
2022-12-23T02:48:35.791Z,9.30
2022-12-23T02:49:11.924Z,9.30
2022-12-23T02:49:49.925Z,9.40
2022-12-23T02:50:30.374Z,9.40
2022-12-23T02:51:03.834Z,9.40
2022-12-23T02:51:42.888Z,9.40
2022-12-23T02:52:18.298Z,9.50
2022-12-23T02:52:52.275Z,9.50
2022-12-23T02:53:27.992Z,9.40
2022-12-23T02:54:04.810Z,9.50
2022-12-23T02:54:41.651Z,9.50
2022-12-23T02:55:18.931Z,9.50
2022-12-23T02:55:54.181Z,9.50
2022-12-23T02:56:28.190Z,9.50
2022-12-23T02:57:03.463Z,9.50
2022-12-23T02:57:39.401Z,9.50
2022-12-23T02:58:14.862Z,9.50
2022-12-23T02:58:52.561Z,9.50
2022-12-23T02:59:29.031Z,9.50
2022-12-23T03:00:03.284Z,9.50
2022-12-23T03:00:39.450Z,9.60
2022-12-23T03:01:14.077Z,9.60
2022-12-23T03:01:47.342Z,9.60
2022-12-23T03:02:19.976Z,9.60
2022-12-23T03:02:53.052Z,9.60
2022-12-23T03:03:26.123Z,9.60
2022-12-23T03:03:58.285Z,9.70
2022-12-23T03:04:31.174Z,9.70
2022-12-23T03:05:03.558Z,9.70
2022-12-23T03:05:40.416Z,9.80
2022-12-23T03:06:20.717Z,9.90
2022-12-23T03:06:54.337Z,9.80
2022-12-23T03:07:31.335Z,9.90
2022-12-23T03:08:07.509Z,9.90
2022-12-23T03:08:43.915Z,9.90
2022-12-23T03:09:22.801Z,9.90
2022-12-23T03:10:04.401Z,9.90
2022-12-23T03:10:46.113Z,9.90
2022-12-23T03:11:19.101Z,9.90
2022-12-23T03:11:59.502Z,9.90
2022-12-23T03:12:43.109Z,9.90
2022-12-23T03:13:24.352Z,9.90
2022-12-23T03:14:35.187Z,10.00
2022-12-23T03:15:27.246Z,10.00
2022-12-23T03:16:12.016Z,10.00
2022-12-23T03:16:53.515Z,10.10
2022-12-23T03:17:35.017Z,10.10
2022-12-23T03:18:12.627Z,10.10
2022-12-23T03:18:54.891Z,10.10
2022-12-23T03:19:33.621Z,10.10
2022-12-23T03:20:15.572Z,10.10
2022-12-23T03:20:53.262Z,10.10
2022-12-23T03:21:31.421Z,10.10
2022-12-23T03:22:11.496Z,10.10
2022-12-23T03:22:54.649Z,10.10
2022-12-23T03:23:29.923Z,10.10
2022-12-23T03:24:12.719Z,10.10
2022-12-23T03:24:53.253Z,10.10
2022-12-23T03:25:31.543Z,10.20
2022-12-23T03:26:10.807Z,10.20
2022-12-23T03:26:50.279Z,10.20
2022-12-23T03:27:28.324Z,10.10
2022-12-23T03:28:04.332Z,10.20
2022-12-23T03:28:40.882Z,10.20
2022-12-23T03:29:17.027Z,10.20
2022-12-23T03:29:55.754Z,10.20
2022-12-23T03:30:30.436Z,10.20
2022-12-23T03:31:07.567Z,10.20
2022-12-23T03:31:41.167Z,10.20
2022-12-23T03:32:17.174Z,10.20
2022-12-23T03:32:53.542Z,10.20
2022-12-23T03:33:29.780Z,10.20
2022-12-23T03:34:06.736Z,10.30
2022-12-23T03:34:42.103Z,10.30
2022-12-23T03:35:17.254Z,10.30
2022-12-23T03:35:53.256Z,10.30
2022-12-23T03:36:29.367Z,10.30
2022-12-23T03:37:05.151Z,10.40
2022-12-23T03:37:42.105Z,10.30
2022-12-23T03:38:17.127Z,10.40
2022-12-23T03:38:51.149Z,10.40
2022-12-23T03:39:29.966Z,10.40
2022-12-23T03:40:06.964Z,10.40
2022-12-23T03:40:43.220Z,10.50
2022-12-23T03:41:20.965Z,10.50
2022-12-23T03:41:57.803Z,10.40
2022-12-23T03:42:35.597Z,10.50
2022-12-23T03:43:11.460Z,10.50
2022-12-23T03:43:50.894Z,10.50
2022-12-23T03:44:29.186Z,10.50
2022-12-23T03:46:09.808Z,10.50
2022-12-23T03:46:46.679Z,10.50
2022-12-23T03:47:23.522Z,10.50
2022-12-23T03:48:00.377Z,10.50
2022-12-23T03:48:35.716Z,10.50
2022-12-23T03:49:11.605Z,10.50
2022-12-23T03:49:48.807Z,10.60
2022-12-23T03:50:23.984Z,10.60
2022-12-23T03:50:59.134Z,10.60
2022-12-23T03:51:38.690Z,10.60
2022-12-23T03:52:20.756Z,10.60
2022-12-23T03:52:58.095Z,10.60
2022-12-23T03:53:34.394Z,10.60
2022-12-23T03:54:13.078Z,10.60
2022-12-23T03:54:48.658Z,10.60
2022-12-23T03:55:25.969Z,10.60
2022-12-23T03:56:02.719Z,10.60
2022-12-23T03:56:37.933Z,10.60
2022-12-23T03:57:12.505Z,10.60
2022-12-23T03:57:48.080Z,10.60
2022-12-23T03:58:28.222Z,10.60
2022-12-23T03:59:04.441Z,10.60
2022-12-23T03:59:39.038Z,10.60
2022-12-23T04:00:12.076Z,10.60
2022-12-23T04:00:48.990Z,10.60
2022-12-23T04:01:29.500Z,10.60
2022-12-23T04:02:08.158Z,10.70
2022-12-23T04:02:47.584Z,10.60
2022-12-23T04:03:26.894Z,10.60
2022-12-23T04:04:03.576Z,10.60
2022-12-23T04:04:51.801Z,10.60
2022-12-23T04:05:26.418Z,10.70
2022-12-23T04:06:01.940Z,10.70
2022-12-23T04:06:39.051Z,10.70
2022-12-23T04:07:15.549Z,10.60
2022-12-23T04:07:52.136Z,10.60
2022-12-23T04:08:29.423Z,10.60
2022-12-23T04:09:03.017Z,10.60
2022-12-23T04:09:35.631Z,10.60
2022-12-23T04:10:10.483Z,10.60
2022-12-23T04:10:42.577Z,10.60
2022-12-23T04:11:14.847Z,10.70
2022-12-23T04:11:48.720Z,10.70
2022-12-23T04:12:22.948Z,10.70
2022-12-23T04:12:55.129Z,10.70
2022-12-23T04:13:28.476Z,10.70
2022-12-23T04:14:00.288Z,10.70
2022-12-23T04:14:35.088Z,10.70
2022-12-23T04:15:12.879Z,10.70
2022-12-23T04:15:46.349Z,10.70
2022-12-23T04:16:18.787Z,10.60
2022-12-23T04:16:54.669Z,10.60
2022-12-23T04:17:27.536Z,10.70
2022-12-23T04:17:59.651Z,10.70
2022-12-23T04:18:31.542Z,10.80
2022-12-23T04:19:04.325Z,10.70
2022-12-23T04:19:36.152Z,10.70
2022-12-23T04:20:08.714Z,10.80
2022-12-23T04:20:41.495Z,10.80
2022-12-23T04:21:13.282Z,10.80
2022-12-23T04:21:45.130Z,10.80
2022-12-23T04:22:16.973Z,10.80
2022-12-23T04:22:49.869Z,10.80
2022-12-23T04:23:21.787Z,11.00
2022-12-23T04:23:53.576Z,10.80
2022-12-23T04:24:26.400Z,10.80
2022-12-23T04:24:58.191Z,10.80
2022-12-23T04:25:30.043Z,10.80
2022-12-23T04:26:02.847Z,10.80
2022-12-23T04:26:34.735Z,10.80
2022-12-23T04:27:07.297Z,10.80
2022-12-23T04:27:39.169Z,10.80
2022-12-23T04:28:11.989Z,10.70
2022-12-23T04:28:43.760Z,10.80
2022-12-23T04:29:15.679Z,10.70
2022-12-23T04:29:48.419Z,10.70
2022-12-23T04:30:20.418Z,10.70
2022-12-23T04:30:52.276Z,10.70
2022-12-23T04:31:25.254Z,10.70
2022-12-23T04:31:58.626Z,10.70
2022-12-23T04:32:30.475Z,10.70
2022-12-23T04:33:03.071Z,10.70
2022-12-23T04:33:35.914Z,10.60
2022-12-23T04:34:07.678Z,10.70
2022-12-23T04:34:39.531Z,10.70
2022-12-23T04:35:13.424Z,10.70
2022-12-23T04:35:45.286Z,10.70
2022-12-23T04:36:18.139Z,10.60
2022-12-23T04:36:49.984Z,10.70
2022-12-23T04:37:21.861Z,10.60
2022-12-23T04:37:54.644Z,10.60
2022-12-23T04:38:26.445Z,10.70
2022-12-23T04:38:58.287Z,10.60
2022-12-23T04:39:31.103Z,10.70
2022-12-23T04:40:03.485Z,10.60
2022-12-23T04:40:35.338Z,10.60
2022-12-23T04:41:07.295Z,10.70
2022-12-23T04:41:40.075Z,10.70
2022-12-23T04:42:12.799Z,10.60
2022-12-23T04:42:45.607Z,10.70
2022-12-23T04:43:17.472Z,10.70
2022-12-23T04:43:52.962Z,10.70
2022-12-23T04:44:26.400Z,10.70
2022-12-23T04:44:58.577Z,10.70
2022-12-23T04:45:30.418Z,10.70
2022-12-23T04:46:03.209Z,10.70
2022-12-23T04:46:35.078Z,10.70
2022-12-23T04:47:08.350Z,10.70
2022-12-23T04:47:41.337Z,10.80
2022-12-23T04:48:13.146Z,10.70
2022-12-23T04:48:44.995Z,10.70
2022-12-23T04:49:17.761Z,10.70
2022-12-23T04:49:49.555Z,10.70
2022-12-23T04:50:22.511Z,10.80
2022-12-23T04:50:54.295Z,10.70
2022-12-23T04:51:26.463Z,10.70
2022-12-23T04:51:58.535Z,10.80
2022-12-23T04:52:31.346Z,10.80
2022-12-23T04:53:03.223Z,10.70
2022-12-23T04:53:36.350Z,10.80
2022-12-23T04:54:09.376Z,10.80
2022-12-23T04:54:46.017Z,10.80
2022-12-23T04:55:18.517Z,10.80
2022-12-23T04:55:51.761Z,10.80
2022-12-23T04:56:23.559Z,10.80
2022-12-23T04:56:55.406Z,10.80
2022-12-23T04:57:28.185Z,10.80
2022-12-23T04:58:00.050Z,10.80
2022-12-23T04:58:31.895Z,10.80
2022-12-23T04:59:04.698Z,10.80
2022-12-23T04:59:36.527Z,10.80
2022-12-23T05:00:09.595Z,10.80
2022-12-23T05:00:42.423Z,10.80
2022-12-23T05:01:14.397Z,10.80
2022-12-23T05:01:46.617Z,10.80
2022-12-23T05:02:21.027Z,10.80
2022-12-23T05:02:53.065Z,10.80
2022-12-23T05:03:25.028Z,10.80
2022-12-23T05:03:57.977Z,10.80
2022-12-23T05:04:30.094Z,10.80
2022-12-23T05:05:01.939Z,10.80
2022-12-23T05:05:34.741Z,10.80
2022-12-23T05:06:07.615Z,10.90
2022-12-23T05:06:39.594Z,10.90
2022-12-23T05:07:12.402Z,10.90
2022-12-23T05:07:44.281Z,10.90
2022-12-23T05:08:16.086Z,10.90
2022-12-23T05:08:48.863Z,10.90
2022-12-23T05:09:20.779Z,10.90
2022-12-23T05:09:52.620Z,10.90
2022-12-23T05:10:25.405Z,11.00
2022-12-23T05:10:57.397Z,10.90
2022-12-23T05:11:29.333Z,11.00
2022-12-23T05:12:02.083Z,11.00
2022-12-23T05:12:33.857Z,11.00
2022-12-23T05:13:05.676Z,11.00
2022-12-23T05:13:38.467Z,11.00
2022-12-23T05:14:10.357Z,11.00
2022-12-23T05:14:42.207Z,11.00
2022-12-23T05:15:15.049Z,11.00
2022-12-23T05:15:49.062Z,11.00
2022-12-23T05:16:20.973Z,11.00
2022-12-23T05:16:53.805Z,11.00
2022-12-23T05:17:27.015Z,11.00
2022-12-23T05:17:58.819Z,11.00
2022-12-23T05:18:31.621Z,11.00
2022-12-23T05:19:03.532Z,11.00
2022-12-23T05:19:35.491Z,11.00
2022-12-23T05:20:09.807Z,11.00
2022-12-23T05:20:41.603Z,11.00
2022-12-23T05:21:13.459Z,11.00
2022-12-23T05:21:46.266Z,11.00
2022-12-23T05:22:18.237Z,11.00
2022-12-23T05:22:50.054Z,11.00
2022-12-23T05:23:22.897Z,11.10
2022-12-23T05:23:55.310Z,11.00
2022-12-23T05:24:27.102Z,11.00
2022-12-23T05:24:59.868Z,11.10
2022-12-23T05:25:32.909Z,11.10
2022-12-23T05:26:04.939Z,11.10
2022-12-23T05:26:37.776Z,11.10
2022-12-23T05:27:09.598Z,11.10
2022-12-23T05:27:41.391Z,11.10
2022-12-23T05:28:14.156Z,11.10
2022-12-23T05:28:46.041Z,11.10
2022-12-23T05:29:17.855Z,11.10
2022-12-23T05:29:50.629Z,11.10
2022-12-23T05:30:22.456Z,11.10
2022-12-23T05:30:58.998Z,11.10
2022-12-23T05:31:31.843Z,11.00
2022-12-23T05:32:04.059Z,11.00
2022-12-23T05:32:37.358Z,11.00
2022-12-23T05:33:10.282Z,11.00
2022-12-23T05:33:42.144Z,11.00
2022-12-23T05:34:14.088Z,11.00
2022-12-23T05:34:46.928Z,11.00
2022-12-23T05:35:18.744Z,11.00
2022-12-23T05:35:50.550Z,11.00
2022-12-23T05:36:23.313Z,11.00
2022-12-23T05:36:55.130Z,11.00
2022-12-23T05:37:27.005Z,11.00
2022-12-23T05:37:59.899Z,11.00
2022-12-23T05:38:31.738Z,11.00
2022-12-23T05:39:03.687Z,11.00
2022-12-23T05:39:36.486Z,11.00
2022-12-23T05:40:10.504Z,11.00
2022-12-23T05:40:42.622Z,11.00
2022-12-23T05:41:16.802Z,11.00
2022-12-23T05:41:48.668Z,11.00
2022-12-23T05:42:20.479Z,11.00
2022-12-23T05:42:53.230Z,11.00
2022-12-23T05:43:25.278Z,11.00
2022-12-23T05:43:57.121Z,11.00
2022-12-23T05:44:29.910Z,11.00
2022-12-23T05:45:01.852Z,11.00
2022-12-23T05:45:35.568Z,11.00
2022-12-23T05:46:08.416Z,11.00
2022-12-23T05:46:40.287Z,11.00
2022-12-23T05:47:12.348Z,11.10
2022-12-23T05:47:46.459Z,11.00
2022-12-23T05:48:18.501Z,11.10
2022-12-23T05:48:50.296Z,11.10
2022-12-23T05:49:25.249Z,11.10
2022-12-23T05:49:57.048Z,11.10
2022-12-23T05:50:28.886Z,11.10
2022-12-23T05:51:01.715Z,11.10
2022-12-23T05:51:33.482Z,11.10
2022-12-23T05:52:05.562Z,11.00
2022-12-23T05:52:38.419Z,11.10
2022-12-23T05:53:10.493Z,11.00
2022-12-23T05:53:42.291Z,11.00
2022-12-23T05:54:15.263Z,11.00
2022-12-23T05:54:47.056Z,11.00
2022-12-23T05:55:18.849Z,11.00
2022-12-23T05:55:51.904Z,11.00
2022-12-23T05:56:23.750Z,11.00
2022-12-23T05:56:55.567Z,11.00
2022-12-23T05:57:28.299Z,10.90
2022-12-23T05:58:00.108Z,11.00
2022-12-23T05:58:32.199Z,11.10
2022-12-23T05:59:04.974Z,11.00
2022-12-23T05:59:36.804Z,11.10
2022-12-23T06:00:10.619Z,11.00
2022-12-23T06:00:43.645Z,11.10
2022-12-23T06:01:15.475Z,11.00
2022-12-23T06:01:47.392Z,11.10
2022-12-23T06:02:21.923Z,11.10
2022-12-23T06:02:56.500Z,11.10
2022-12-23T06:03:28.640Z,11.10
2022-12-23T06:04:00.694Z,11.10
2022-12-23T06:04:33.552Z,11.10
2022-12-23T06:05:06.360Z,11.10
2022-12-23T06:05:39.212Z,11.10
2022-12-23T06:06:12.025Z,11.10
2022-12-23T06:06:43.845Z,11.10
2022-12-23T06:07:15.644Z,11.10
2022-12-23T06:07:48.419Z,11.10
2022-12-23T06:08:20.751Z,11.20
2022-12-23T06:08:59.183Z,11.20
2022-12-23T06:09:32.514Z,11.20
2022-12-23T06:10:05.470Z,11.20
2022-12-23T06:10:37.377Z,11.20
2022-12-23T06:11:10.159Z,11.20
2022-12-23T06:11:41.962Z,11.20
2022-12-23T06:12:13.762Z,11.20
2022-12-23T06:12:46.517Z,11.20
2022-12-23T06:13:18.303Z,11.20
2022-12-23T06:13:50.198Z,11.20
2022-12-23T06:14:28.527Z,11.20
2022-12-23T06:15:01.133Z,11.20
2022-12-23T06:15:33.911Z,11.20
2022-12-23T06:16:06.632Z,11.20
2022-12-23T06:16:38.572Z,11.20
2022-12-23T06:17:11.379Z,11.20
2022-12-23T06:17:43.192Z,11.20
2022-12-23T06:18:16.455Z,11.20
2022-12-23T06:18:49.303Z,11.20
2022-12-23T06:19:21.115Z,11.30
2022-12-23T06:19:53.012Z,11.30
2022-12-23T06:20:25.778Z,11.30
2022-12-23T06:20:57.635Z,11.30
2022-12-23T06:21:29.669Z,11.30
2022-12-23T06:22:02.467Z,11.30
2022-12-23T06:22:34.409Z,11.30
2022-12-23T06:23:06.242Z,11.30
2022-12-23T06:23:39.097Z,11.30
2022-12-23T06:24:11.399Z,11.30
2022-12-23T06:24:43.426Z,11.40
2022-12-23T06:25:16.487Z,11.30
2022-12-23T06:25:48.312Z,11.40
2022-12-23T06:26:20.167Z,11.40
2022-12-23T06:26:56.977Z,11.40
2022-12-23T06:27:29.358Z,11.40
2022-12-23T06:28:01.183Z,11.40
2022-12-23T06:28:34.008Z,11.40
2022-12-23T06:29:06.140Z,11.40
2022-12-23T06:29:38.004Z,11.40
2022-12-23T06:30:11.513Z,11.40
2022-12-23T06:30:43.355Z,11.40
2022-12-23T06:31:15.378Z,11.30
2022-12-23T06:31:48.262Z,11.30
2022-12-23T06:32:20.125Z,11.30
2022-12-23T06:32:51.911Z,11.40
2022-12-23T06:33:26.421Z,11.30
2022-12-23T06:33:58.209Z,11.30
2022-12-23T06:34:31.300Z,11.30
2022-12-23T06:35:03.166Z,11.30
2022-12-23T06:35:35.944Z,11.30
2022-12-23T06:36:09.030Z,11.30
2022-12-23T06:36:40.863Z,11.40
2022-12-23T06:37:13.653Z,11.40
2022-12-23T06:37:45.452Z,11.40
2022-12-23T06:38:17.351Z,11.30
2022-12-23T06:38:50.086Z,11.40
2022-12-23T06:39:21.981Z,11.30
2022-12-23T06:39:53.809Z,11.30
2022-12-23T06:40:28.874Z,11.40
2022-12-23T06:41:00.844Z,11.40
2022-12-23T06:41:32.677Z,11.40
2022-12-23T06:42:05.562Z,11.40
2022-12-23T06:42:37.338Z,11.30
2022-12-23T06:43:11.222Z,11.30
2022-12-23T06:43:43.998Z,11.40
2022-12-23T06:44:15.838Z,11.30
2022-12-23T06:44:47.661Z,11.30
2022-12-23T06:45:20.498Z,11.30
2022-12-23T06:45:52.346Z,11.30
2022-12-23T06:46:24.215Z,11.30
2022-12-23T06:46:56.986Z,11.30
2022-12-23T06:47:28.913Z,11.30
2022-12-23T06:48:00.690Z,11.30
2022-12-23T06:48:34.854Z,11.40
2022-12-23T06:49:12.836Z,11.40
2022-12-23T06:49:46.373Z,11.40
2022-12-23T06:50:18.244Z,11.40
2022-12-23T06:50:50.979Z,11.40
2022-12-23T06:51:23.965Z,11.40
2022-12-23T06:51:55.780Z,11.40
2022-12-23T06:52:27.617Z,11.40
2022-12-23T06:53:00.409Z,11.50
2022-12-23T06:53:32.284Z,11.50
2022-12-23T06:54:04.170Z,11.50
2022-12-23T06:54:36.984Z,11.50
2022-12-23T06:55:09.271Z,11.50
2022-12-23T06:55:41.162Z,11.50
2022-12-23T06:56:13.954Z,11.50
2022-12-23T06:56:45.752Z,11.50
2022-12-23T06:57:17.552Z,11.50
2022-12-23T06:57:50.351Z,11.50
2022-12-23T06:58:22.115Z,11.60
2022-12-23T06:58:53.971Z,11.50
2022-12-23T06:59:26.890Z,11.50
2022-12-23T06:59:58.718Z,11.60
2022-12-23T07:00:31.507Z,11.50
2022-12-23T07:01:03.505Z,11.60
2022-12-23T07:01:35.569Z,11.60
2022-12-23T07:02:10.562Z,11.60
2022-12-23T07:02:42.523Z,11.60
2022-12-23T07:03:14.588Z,11.60
2022-12-23T07:03:50.879Z,11.60
2022-12-23T07:04:22.689Z,11.60
2022-12-23T07:04:54.571Z,11.60
2022-12-23T07:05:33.296Z,11.60
2022-12-23T07:06:08.470Z,11.70
2022-12-23T07:06:41.271Z,11.70
2022-12-23T07:07:13.205Z,11.60
2022-12-23T07:07:44.959Z,11.60
2022-12-23T07:08:18.253Z,11.60
2022-12-23T07:08:50.798Z,11.70
2022-12-23T07:09:22.616Z,11.60
2022-12-23T07:09:55.377Z,11.70
2022-12-23T07:10:27.223Z,11.70
2022-12-23T07:11:00.442Z,11.60
2022-12-23T07:11:33.227Z,11.70
2022-12-23T07:12:05.626Z,11.70
2022-12-23T07:12:37.848Z,11.70
2022-12-23T07:13:10.999Z,11.70
2022-12-23T07:13:42.817Z,11.70
2022-12-23T07:14:15.579Z,11.70
2022-12-23T07:14:47.363Z,11.70
2022-12-23T07:15:19.148Z,11.70
2022-12-23T07:15:51.908Z,11.70
2022-12-23T07:16:23.965Z,11.70
2022-12-23T07:16:55.850Z,11.70
2022-12-23T07:17:28.941Z,11.70
2022-12-23T07:18:00.770Z,11.60
2022-12-23T07:18:32.638Z,11.60
2022-12-23T07:19:06.803Z,11.70
2022-12-23T07:19:38.667Z,11.70
2022-12-23T07:20:13.624Z,11.60
2022-12-23T07:20:46.422Z,11.60
2022-12-23T07:21:26.690Z,11.60
2022-12-23T07:22:00.673Z,11.70
2022-12-23T07:22:33.437Z,11.60
2022-12-23T07:23:05.241Z,11.60
2022-12-23T07:23:37.106Z,11.60
2022-12-23T07:24:10.144Z,11.60
2022-12-23T07:24:42.000Z,11.70
2022-12-23T07:25:13.934Z,11.60
2022-12-23T07:25:46.699Z,11.60
2022-12-23T07:26:18.510Z,11.60
2022-12-23T07:26:52.175Z,11.60
2022-12-23T07:27:24.956Z,11.60
2022-12-23T07:27:57.046Z,11.60
2022-12-23T07:28:29.801Z,11.60
2022-12-23T07:29:02.090Z,11.50
2022-12-23T07:29:34.859Z,11.60
2022-12-23T07:30:08.083Z,11.50
2022-12-23T07:30:39.870Z,11.50
2022-12-23T07:31:12.776Z,11.50
2022-12-23T07:31:44.687Z,11.60
2022-12-23T07:32:16.556Z,11.60
2022-12-23T07:32:49.382Z,11.60
2022-12-23T07:33:21.184Z,11.60
2022-12-23T07:33:52.984Z,11.70
2022-12-23T07:34:27.065Z,11.70
2022-12-23T07:34:58.876Z,11.70
2022-12-23T07:35:30.688Z,11.70
2022-12-23T07:36:03.472Z,11.70
2022-12-23T07:36:35.398Z,11.60
2022-12-23T07:37:08.228Z,11.60
2022-12-23T07:37:40.051Z,11.60
2022-12-23T07:38:11.865Z,11.60
2022-12-23T07:38:44.642Z,11.60